Time;durP1;ratioP1;P1;durP2;ratioP2;P2;SDS_P1;SDS_P2;PMS_P1;PMS_P2;Temp;Humidity;BMP_temperature;BMP_pressure;BME280_temperature;BME280_humidity;BME280_pressure;Samples;Min_cycle;Max_cycle;Signal;HPM_P1;HPM_P2
2023/07/27 00:08:58;;;;;;;3;1.5;;;;;;;;;;;;;
2023/07/27 00:11:22;;;;;;;1.6;1.5;;;;;;;;;;;;;
2023/07/27 00:13:47;;;;;;;2.5;1.5;;;;;;;;;;;;;
2023/07/27 00:16:12;;;;;;;1.3;1.2;;;;;;;;;;;;;
2023/07/27 00:18:38;;;;;;;2.2;1.4;;;;;;;;;;;;;
2023/07/27 00:21:03;;;;;;;1.5;1.3;;;;;;;;;;;;;
2023/07/27 00:23:29;;;;;;;1.4;1.3;;;;;;;;;;;;;
2023/07/27 00:25:54;;;;;;;2.2;1.6;;;;;;;;;;;;;
2023/07/27 00:33:26;;;;;;;2.4;1.6;;;;;;;;;;;;;
2023/07/27 00:35:45;;;;;;;1.8;1.5;;;;;;;;;;;;;
2023/07/27 00:38:11;;;;;;;1.9;1.7;;;;;;;;;;;;;
2023/07/27 00:48:04;;;;;;;2.1;1.5;;;;;;;;;;;;;
2023/07/27 00:50:30;;;;;;;2.1;1.9;;;;;;;;;;;;;
2023/07/27 01:06:13;;;;;;;2.3;1.6;;;;;;;;;;;;;
2023/07/27 01:08:38;;;;;;;1.8;1.5;;;;;;;;;;;;;
2023/07/27 01:16:04;;;;;;;2.1;1.9;;;;;;;;;;;;;
2023/07/27 01:18:31;;;;;;;1.9;1.8;;;;;;;;;;;;;
2023/07/27 01:20:56;;;;;;;3.1;2.1;;;;;;;;;;;;;
2023/07/27 01:23:21;;;;;;;1.9;1.7;;;;;;;;;;;;;
2023/07/27 01:25:48;;;;;;;2;1.6;;;;;;;;;;;;;
2023/07/27 01:28:13;;;;;;;2.7;1.5;;;;;;;;;;;;;
2023/07/27 01:30:38;;;;;;;2.1;1.5;;;;;;;;;;;;;
2023/07/27 01:33:03;;;;;;;1.7;1.5;;;;;;;;;;;;;
2023/07/27 01:35:28;;;;;;;1.8;1.6;;;;;;;;;;;;;
2023/07/27 01:37:54;;;;;;;1.9;1.7;;;;;;;;;;;;;
2023/07/27 01:40:19;;;;;;;2.5;1.9;;;;;;;;;;;;;
2023/07/27 01:42:45;;;;;;;1.9;1.6;;;;;;;;;;;;;
2023/07/27 01:45:13;;;;;;;2.1;1.5;;;;;;;;;;;;;
2023/07/27 01:47:38;;;;;;;1.9;1.6;;;;;;;;;;;;;
2023/07/27 01:52:56;;;;;;;1.9;1.6;;;;;;;;;;;;;
2023/07/27 01:55:22;;;;;;;1.5;1.4;;;;;;;;;;;;;
2023/07/27 01:57:46;;;;;;;2.2;1.9;;;;;;;;;;;;;
2023/07/27 02:00:15;;;;;;;2.6;1.7;;;;;;;;;;;;;
2023/07/27 02:02:40;;;;;;;2.1;1.7;;;;;;;;;;;;;
2023/07/27 02:05:05;;;;;;;2.4;1.9;;;;;;;;;;;;;
2023/07/27 02:07:30;;;;;;;2.5;1.8;;;;;;;;;;;;;
2023/07/27 02:09:55;;;;;;;2.7;1.9;;;;;;;;;;;;;
2023/07/27 02:12:20;;;;;;;1.7;1.6;;;;;;;;;;;;;
2023/07/27 02:14:46;;;;;;;2.7;1.9;;;;;;;;;;;;;
2023/07/27 02:17:11;;;;;;;2.1;1.7;;;;;;;;;;;;;
2023/07/27 02:19:36;;;;;;;2.3;1.8;;;;;;;;;;;;;
2023/07/27 02:22:01;;;;;;;1.7;1.5;;;;;;;;;;;;;
2023/07/27 02:24:28;;;;;;;1.8;1.6;;;;;;;;;;;;;
2023/07/27 02:26:53;;;;;;;2.4;1.9;;;;;;;;;;;;;
2023/07/27 02:29:18;;;;;;;2.7;1.6;;;;;;;;;;;;;
2023/07/27 02:31:44;;;;;;;2.1;1.7;;;;;;;;;;;;;
2023/07/27 02:34:09;;;;;;;2.2;1.6;;;;;;;;;;;;;
2023/07/27 02:36:38;;;;;;;2.5;1.9;;;;;;;;;;;;;
2023/07/27 02:39:03;;;;;;;2.5;1.9;;;;;;;;;;;;;
2023/07/27 02:41:28;;;;;;;2.8;1.8;;;;;;;;;;;;;
2023/07/27 02:43:53;;;;;;;2.2;1.9;;;;;;;;;;;;;
2023/07/27 02:46:19;;;;;;;2.5;1.7;;;;;;;;;;;;;
2023/07/27 02:48:44;;;;;;;2.4;1.5;;;;;;;;;;;;;
2023/07/27 02:51:11;;;;;;;2.2;1.6;;;;;;;;;;;;;
2023/07/27 02:53:37;;;;;;;3.5;2;;;;;;;;;;;;;
2023/07/27 02:56:15;;;;;;;2.2;1.8;;;;;;;;;;;;;
2023/07/27 02:58:42;;;;;;;2.5;1.9;;;;;;;;;;;;;
2023/07/27 03:01:07;;;;;;;2.5;1.9;;;;;;;;;;;;;
2023/07/27 03:03:33;;;;;;;2.6;2;;;;;;;;;;;;;
2023/07/27 03:05:58;;;;;;;3.1;2;;;;;;;;;;;;;
2023/07/27 03:08:25;;;;;;;3.3;2;;;;;;;;;;;;;
2023/07/27 03:10:50;;;;;;;2.2;2;;;;;;;;;;;;;
2023/07/27 03:13:16;;;;;;;3;2.4;;;;;;;;;;;;;
2023/07/27 03:15:41;;;;;;;3.2;2;;;;;;;;;;;;;
2023/07/27 03:18:07;;;;;;;2.7;2.2;;;;;;;;;;;;;
2023/07/27 03:20:33;;;;;;;2.5;1.7;;;;;;;;;;;;;
2023/07/27 03:22:59;;;;;;;2.4;1.9;;;;;;;;;;;;;
2023/07/27 03:25:23;;;;;;;2.8;2;;;;;;;;;;;;;
2023/07/27 03:27:50;;;;;;;2;1.8;;;;;;;;;;;;;
2023/07/27 03:30:21;;;;;;;3.2;2;;;;;;;;;;;;;
2023/07/27 03:32:47;;;;;;;2.5;2;;;;;;;;;;;;;
2023/07/27 03:35:12;;;;;;;1.9;1.7;;;;;;;;;;;;;
2023/07/27 03:37:38;;;;;;;2.8;2.4;;;;;;;;;;;;;
2023/07/27 03:40:03;;;;;;;2.9;2.1;;;;;;;;;;;;;
2023/07/27 03:42:28;;;;;;;2.4;2.1;;;;;;;;;;;;;
2023/07/27 03:44:53;;;;;;;2.6;1.8;;;;;;;;;;;;;
2023/07/27 03:47:19;;;;;;;2.7;2.1;;;;;;;;;;;;;
2023/07/27 03:49:47;;;;;;;2.6;2;;;;;;;;;;;;;
2023/07/27 03:52:12;;;;;;;2.8;2.1;;;;;;;;;;;;;
2023/07/27 03:54:37;;;;;;;3;2;;;;;;;;;;;;;
2023/07/27 03:57:02;;;;;;;3.5;1.7;;;;;;;;;;;;;
2023/07/27 03:59:28;;;;;;;2.6;1.8;;;;;;;;;;;;;
2023/07/27 04:02:35;;;;;;;1.9;1.7;;;;;;;8.47;98.25586;937.8092;;;;
2023/07/27 04:07:44;;;;;;;2.3;1.8;;;;;;;8.17;99.62012;937.793;;;;
2023/07/27 04:10:12;;;;;;;2.1;1.8;;;;;;;8.07;100;937.7966;;;;
2023/07/27 04:12:42;;;;;;;2.4;1.8;;;;;;;8.09;100;937.8311;;;;
2023/07/27 04:15:18;;;;;;;2;1.9;;;;;;;8.13;100;937.8293;;;;
2023/07/27 04:28:52;;;;;;;2;1.8;;;;;;;8.35;100;937.6537;;;;
2023/07/27 04:47:20;;;;;;;3;2.6;;;;;;;8.88;98.47559;937.7153;;;;
2023/07/27 04:49:45;;;;;;;3.6;2.4;;;;;;;8.93;98.2373;937.7978;;;;
2023/07/27 04:52:10;;;;;;;3.7;2.9;;;;;;;8.77;98.24609;937.796;;;;
2023/07/27 04:54:39;;;;;;;2.9;2.6;;;;;;;8.93;97.76953;937.824;;;;
2023/07/27 05:01:36;;;;;;;2.5;2.3;;;;;;;9.01;96.51367;937.9033;;;;
2023/07/27 05:21:22;;;;;;;3;2.4;;;;;;;9.62;96.47852;937.7199;;;;
2023/07/27 05:23:47;;;;;;;3;2.3;;;;;;;9.96;95.53027;937.7416;;;;
2023/07/27 05:26:18;;;;;;;2.9;2.4;;;;;;;10.61;93.52539;937.7101;;;;
2023/07/27 05:28:50;;;;;;;2.6;1.8;;;;;;;11.32;89.21875;937.6003;;;;
2023/07/27 05:31:22;;;;;;;2.7;2;;;;;;;11.92;85.9873;937.6311;;;;
2023/07/27 05:33:51;;;;;;;3;1.9;;;;;;;12.53;82.34473;937.5461;;;;
2023/07/27 05:36:23;;;;;;;3.1;1.9;;;;;;;12.8;79.91699;937.4953;;;;
2023/07/27 05:38:48;;;;;;;2.1;1.8;;;;;;;12.82;78.23438;937.4732;;;;
2023/07/27 05:41:17;;;;;;;3;2.1;;;;;;;12.95;79.45117;937.4316;;;;
2023/07/27 05:43:42;;;;;;;1.9;1.5;;;;;;;12.77;77.08887;937.4753;;;;
2023/07/27 05:46:10;;;;;;;2.4;1.7;;;;;;;12.83;78.1543;937.3876;;;;
2023/07/27 05:48:36;;;;;;;4.1;2;;;;;;;13.04;79.52344;937.4805;;;;
2023/07/27 05:51:04;;;;;;;3.8;2;;;;;;;13.31;78.09277;937.4598;;;;
2023/07/27 05:53:29;;;;;;;3.3;1.8;;;;;;;13.49;77.04297;937.4428;;;;
2023/07/27 05:55:57;;;;;;;1.6;1.5;;;;;;;14.24;73.82422;937.4797;;;;
2023/07/27 05:58:22;;;;;;;2;1.7;;;;;;;15.46;69.70215;937.418;;;;
2023/07/27 06:00:50;;;;;;;1.9;1.7;;;;;;;16.38;64.29395;937.317;;;;
2023/07/27 06:03:16;;;;;;;1.7;1.6;;;;;;;17.27;62.37305;937.4139;;;;
2023/07/27 06:05:41;;;;;;;1.5;1.3;;;;;;;17.12;60.38086;937.3269;;;;
2023/07/27 06:08:08;;;;;;;3.3;1.5;;;;;;;16.95;61.97949;937.2869;;;;
2023/07/27 06:10:33;;;;;;;2.5;1.8;;;;;;;17.72;59.08105;937.2269;;;;
2023/07/27 06:12:59;;;;;;;2.6;1.9;;;;;;;18.21;57.24219;937.2488;;;;
2023/07/27 06:26:02;;;;;;;1.5;1.4;;;;;;;18.77;58.45508;937.0421;;;;
2023/07/27 06:28:27;;;;;;;1.9;1.7;;;;;;;19.72;52.27148;937.0048;;;;
2023/07/27 06:30:52;;;;;;;1.8;1.5;;;;;;;19.84;51.83203;936.9571;;;;
2023/07/27 06:33:17;;;;;;;2.5;1.6;;;;;;;19.4;52.28125;936.9891;;;;
2023/07/27 06:35:45;;;;;;;1.3;1.2;;;;;;;19.17;52.5791;936.9764;;;;
2023/07/27 06:39:03;;;;;;;1.5;1.4;;;;;;;18.65;55.34473;936.9757;;;;
2023/07/27 06:41:31;;;;;;;2.2;1.6;;;;;;;17;57.63965;937.0569;;;;
2023/07/27 06:44:00;;;;;;;2.2;1.4;;;;;;;16.21;61.86133;936.9738;;;;
2023/07/27 06:46:21;;;;;;;1.9;1.5;;;;;;;15.9;64.69824;936.9761;;;;
2023/07/27 06:48:47;;;;;;;2;1.7;;;;;;;15.58;65.45703;936.9528;;;;
2023/07/27 06:51:13;;;;;;;2.4;1.6;;;;;;;15.76;67.14941;936.9125;;;;
2023/07/27 06:53:39;;;;;;;3.2;1.5;;;;;;;15.68;67.49512;936.9586;;;;
2023/07/27 06:56:07;;;;;;;1.9;1.7;;;;;;;15.71;68.99023;936.9807;;;;
2023/07/27 06:58:37;;;;;;;1.9;1.8;;;;;;;15.73;69.88379;936.9811;;;;
2023/07/27 07:01:03;;;;;;;2.8;1.6;;;;;;;15.91;68.35059;936.8636;;;;
2023/07/27 07:03:30;;;;;;;3.1;1.7;;;;;;;15.68;69.85254;936.8286;;;;
2023/07/27 07:05:55;;;;;;;2.5;1.6;;;;;;;15.59;68.19727;936.8141;;;;
2023/07/27 07:08:21;;;;;;;2.4;1.6;;;;;;;15.41;68.52734;936.8709;;;;
2023/07/27 07:10:46;;;;;;;2.8;1.6;;;;;;;15.39;69.32129;936.8181;;;;
2023/07/27 07:13:12;;;;;;;2.4;1.8;;;;;;;15.41;69.90137;936.8317;;;;
2023/07/27 07:15:38;;;;;;;1.8;1.6;;;;;;;15.25;70.36035;936.7715;;;;
2023/07/27 07:18:07;;;;;;;2.2;1.9;;;;;;;15.23;71.64941;936.8072;;;;
2023/07/27 07:20:31;;;;;;;2;1.6;;;;;;;15.3;70.69043;936.7647;;;;
2023/07/27 07:22:59;;;;;;;2.2;1.6;;;;;;;15.26;71.75781;936.7731;;;;
2023/07/27 07:25:24;;;;;;;2.1;1.8;;;;;;;15.18;72.09277;936.7031;;;;
2023/07/27 07:27:53;;;;;;;2.5;2.1;;;;;;;15.43;71.92676;936.7578;;;;
2023/07/27 07:30:18;;;;;;;2;1.7;;;;;;;15.71;71.33496;936.7109;;;;
2023/07/27 07:32:46;;;;;;;2;1.7;;;;;;;15.79;70.28516;936.7324;;;;
2023/07/27 07:35:11;;;;;;;3;1.9;;;;;;;15.82;69.59766;936.6166;;;;
2023/07/27 07:37:39;;;;;;;2.3;1.6;;;;;;;15.74;69.56152;936.6367;;;;
2023/07/27 07:40:04;;;;;;;1.9;1.7;;;;;;;16.03;69.71191;936.6019;;;;
2023/07/27 07:42:30;;;;;;;2.4;1.7;;;;;;;16.21;67.75098;936.5872;;;;
2023/07/27 07:44:55;;;;;;;3;1.8;;;;;;;16.48;66.32324;936.546;;;;
2023/07/27 07:47:22;;;;;;;2.4;1.7;;;;;;;16.39;67.20996;936.4885;;;;
2023/07/27 07:49:48;;;;;;;2.1;1.9;;;;;;;16.49;66.09277;936.5602;;;;
2023/07/27 07:52:14;;;;;;;3.1;1.9;;;;;;;16.62;65.13867;936.5351;;;;
2023/07/27 07:54:39;;;;;;;2.4;1.8;;;;;;;16.66;65.08789;936.5408;;;;
2023/07/27 07:57:05;;;;;;;2.8;1.7;;;;;;;16.81;64.87793;936.5137;;;;
2023/07/27 07:59:31;;;;;;;2.9;1.8;;;;;;;16.9;63.50098;936.4456;;;;
2023/07/27 08:01:59;;;;;;;2.1;1.6;;;;;;;16.59;63.0625;936.3761;;;;
2023/07/27 08:04:24;;;;;;;2.4;1.7;;;;;;;16.42;65.44531;936.4006;;;;
2023/07/27 08:06:50;;;;;;;2.6;1.7;;;;;;;16.51;64.73926;936.3365;;;;
2023/07/27 08:09:16;;;;;;;2.1;1.9;;;;;;;16.46;65.89063;936.3438;;;;
2023/07/27 08:11:43;;;;;;;1.7;1.5;;;;;;;16.69;67.39746;936.2889;;;;
2023/07/27 08:14:08;;;;;;;2.5;1.9;;;;;;;16.89;68.00586;936.3405;;;;
2023/07/27 08:16:33;;;;;;;2.8;1.9;;;;;;;16.7;66.66797;936.3515;;;;
2023/07/27 08:18:58;;;;;;;1.8;1.7;;;;;;;16.7;67.53711;936.2333;;;;
2023/07/27 08:21:23;;;;;;;2.4;1.7;;;;;;;16.94;66.27539;936.2406;;;;
2023/07/27 08:23:50;;;;;;;2.6;1.9;;;;;;;17.04;66.90625;936.2197;;;;
2023/07/27 08:26:15;;;;;;;1.9;1.7;;;;;;;16.95;66.12598;936.1617;;;;
2023/07/27 08:28:41;;;;;;;2.3;1.8;;;;;;;17.05;66.72168;936.0958;;;;
2023/07/27 08:31:07;;;;;;;2;1.7;;;;;;;17.27;65.38672;936.0877;;;;
2023/07/27 08:33:33;;;;;;;2;1.8;;;;;;;17.44;63.41699;935.963;;;;
2023/07/27 08:35:59;;;;;;;1.9;1.6;;;;;;;17.48;63.5498;935.9364;;;;
2023/07/27 08:38:27;;;;;;;2.5;1.8;;;;;;;17.44;63.86914;935.9339;;;;
2023/07/27 08:40:52;;;;;;;2.4;1.7;;;;;;;17.32;64.87109;935.9395;;;;
2023/07/27 08:43:19;;;;;;;2.2;1.7;;;;;;;17.3;65.5293;935.8859;;;;
2023/07/27 08:45:44;;;;;;;3.1;2;;;;;;;17.2;66.2002;935.9141;;;;
2023/07/27 08:48:12;;;;;;;2.7;1.8;;;;;;;17.44;63.78809;935.8116;;;;
2023/07/27 08:50:36;;;;;;;3.9;1.9;;;;;;;17.53;65.2627;935.7518;;;;
2023/07/27 08:53:01;;;;;;;2.3;1.9;;;;;;;17.6;65.12109;935.7455;;;;
2023/07/27 08:55:28;;;;;;;4.1;2.3;;;;;;;17.34;64.51563;935.8198;;;;
2023/07/27 08:57:53;;;;;;;2.5;1.8;;;;;;;17.53;65.24023;935.8331;;;;
2023/07/27 09:00:19;;;;;;;2.2;1.8;;;;;;;17.83;64.41309;935.7905;;;;
2023/07/27 09:02:45;;;;;;;2.7;1.8;;;;;;;17.89;64.93359;935.752;;;;
2023/07/27 09:05:14;;;;;;;2.6;2;;;;;;;17.9;63.31934;935.7454;;;;
2023/07/27 09:07:40;;;;;;;1.8;1.6;;;;;;;17.93;62.09375;935.752;;;;
2023/07/27 09:10:10;;;;;;;2.5;1.6;;;;;;;17.96;62.77246;935.7794;;;;
2023/07/27 09:12:35;;;;;;;1.8;1.6;;;;;;;18.06;61.12402;935.7017;;;;
2023/07/27 09:15:04;;;;;;;3.1;1.9;;;;;;;17.98;62.36719;935.7766;;;;
2023/07/27 09:17:45;;;;;;;2.5;1.7;;;;;;;18.33;61.52246;935.7988;;;;
2023/07/27 09:20:08;;;;;;;2;1.4;;;;;;;18.37;60.04199;935.8097;;;;
2023/07/27 09:22:37;;;;;;;2.6;1.9;;;;;;;18.48;61.70605;935.7137;;;;
2023/07/27 09:25:05;;;;;;;2.1;1.7;;;;;;;18.65;59.60156;935.7424;;;;
2023/07/27 09:27:30;;;;;;;3.7;2.4;;;;;;;18.84;58.95215;935.7781;;;;
2023/07/27 09:29:55;;;;;;;2.4;1.9;;;;;;;18.84;58.00977;935.7733;;;;
2023/07/27 09:32:26;;;;;;;2;1.6;;;;;;;18.85;55.74219;935.6124;;;;
2023/07/27 09:34:52;;;;;;;2.5;1.9;;;;;;;19.08;57.21484;935.5669;;;;
2023/07/27 09:37:17;;;;;;;1.6;1.5;;;;;;;19.01;56.03027;935.6476;;;;
2023/07/27 09:39:45;;;;;;;1.8;1.6;;;;;;;19.32;58.35254;935.5655;;;;
2023/07/27 09:42:10;;;;;;;2.2;1.6;;;;;;;19.59;54.9375;935.4919;;;;
2023/07/27 09:44:38;;;;;;;2.7;1.7;;;;;;;19.47;53.26758;935.4379;;;;
2023/07/27 09:47:01;;;;;;;2.5;2;;;;;;;19.67;55.25195;935.4905;;;;
2023/07/27 09:49:26;;;;;;;2.4;1.8;;;;;;;20.05;54.19043;935.4835;;;;
2023/07/27 09:51:52;;;;;;;2;1.5;;;;;;;20.08;53.07324;935.4294;;;;
2023/07/27 09:54:17;;;;;;;3.2;1.9;;;;;;;20.11;53.64844;935.3984;;;;
2023/07/27 09:56:42;;;;;;;2;1.7;;;;;;;20.63;51.59668;935.3734;;;;
2023/07/27 09:59:07;;;;;;;2.4;1.8;;;;;;;21.05;50.45313;935.3642;;;;
2023/07/27 10:01:34;;;;;;;2.1;1.9;;;;;;;21.11;47.44238;935.2034;;;;
2023/07/27 10:03:59;;;;;;;1.9;1.8;;;;;;;21.06;48.99121;935.1334;;;;
2023/07/27 10:06:28;;;;;;;2.5;1.8;;;;;;;21.21;47.67578;935.1261;;;;
2023/07/27 10:08:58;;;;;;;2.8;1.8;;;;;;;21.03;45.64453;935.1367;;;;
2023/07/27 10:11:23;;;;;;;3.8;1.9;;;;;;;21.1;47.59375;935.1722;;;;
2023/07/27 10:13:48;;;;;;;2.1;1.8;;;;;;;20.9;45.75977;935.0964;;;;
2023/07/27 10:16:13;;;;;;;2.8;1.7;;;;;;;20.95;47.71777;935.072;;;;
2023/07/27 10:18:39;;;;;;;5.5;1.7;;;;;;;20.62;48.27734;935.1067;;;;
2023/07/27 10:21:04;;;;;;;2.3;1.9;;;;;;;20.75;50.94434;935.0814;;;;
2023/07/27 10:23:31;;;;;;;2.4;1.6;;;;;;;20.13;48.39844;935.152;;;;
2023/07/27 10:25:57;;;;;;;2.1;1.7;;;;;;;20.53;52.21582;935.0853;;;;
2023/07/27 10:28:23;;;;;;;3;1.9;;;;;;;20.73;49.36523;935.0657;;;;
2023/07/27 10:30:51;;;;;;;1.7;1.6;;;;;;;20.55;50.34863;935.0128;;;;
2023/07/27 10:33:31;;;;;;;2.3;1.7;;;;;;;20.72;50.35645;934.9595;;;;
2023/07/27 10:35:41;;;;;;;2.8;1.9;;;;;;;20.87;49.40332;934.9642;;;;
2023/07/27 10:38:06;;;;;;;2.4;1.9;;;;;;;20.97;48.31641;935.0009;;;;
2023/07/27 10:40:35;;;;;;;2;1.7;;;;;;;20.88;47.25391;934.979;;;;
2023/07/27 10:42:58;;;;;;;2.1;1.9;;;;;;;21.22;50.00391;934.9858;;;;
2023/07/27 10:45:27;;;;;;;2.8;1.9;;;;;;;21.4;47.5791;934.8929;;;;
2023/07/27 10:47:52;;;;;;;1.5;1.4;;;;;;;21.42;46.7959;934.8875;;;;
2023/07/27 10:50:19;;;;;;;3;2.1;;;;;;;21.45;46.06152;934.8631;;;;
2023/07/27 10:52:42;;;;;;;2.7;1.9;;;;;;;21.56;48.2041;934.8492;;;;
2023/07/27 10:55:08;;;;;;;2.3;1.7;;;;;;;20.82;47.11914;934.8582;;;;
2023/07/27 10:57:34;;;;;;;2.2;1.7;;;;;;;20.73;47.20313;934.8408;;;;
2023/07/27 11:00:00;;;;;;;2;1.8;;;;;;;20.88;49.80176;934.7736;;;;
2023/07/27 11:02:25;;;;;;;2.2;1.8;;;;;;;20.91;50.35547;934.8217;;;;
2023/07/27 11:04:54;;;;;;;1.9;1.7;;;;;;;20.52;49.83203;934.8802;;;;
2023/07/27 11:07:19;;;;;;;2.8;1.7;;;;;;;20.53;49.48242;934.8386;;;;
2023/07/27 11:09:45;;;;;;;2.2;1.9;;;;;;;20.7;48.4375;934.842;;;;
2023/07/27 11:12:09;;;;;;;2.4;2;;;;;;;20.73;52.42578;934.8791;;;;
2023/07/27 11:14:35;;;;;;;2.3;1.7;;;;;;;20.62;50.66113;934.9456;;;;
2023/07/27 11:17:00;;;;;;;2;1.8;;;;;;;20.62;52.44824;934.9141;;;;
2023/07/27 11:19:26;;;;;;;2.5;1.8;;;;;;;20.57;51.68262;934.8736;;;;
2023/07/27 11:21:51;;;;;;;1.9;1.7;;;;;;;20.71;53.58008;934.8102;;;;
2023/07/27 11:24:18;;;;;;;2.1;1.8;;;;;;;20.72;51.3623;934.897;;;;
2023/07/27 11:27:03;;;;;;;2.7;1.8;;;;;;;20.77;54.29004;934.883;;;;
2023/07/27 11:29:32;;;;;;;4;1.6;;;;;;;20.53;52.51855;934.8526;;;;
2023/07/27 11:34:46;;;;;;;3.4;1.7;;;;;;;20.15;54.13184;934.8278;;;;
2023/07/27 11:37:11;;;;;;;3.2;1.9;;;;;;;19.94;52.50879;934.8036;;;;
2023/07/27 11:39:42;;;;;;;2.3;1.8;;;;;;;20.12;54.12793;934.7918;;;;
2023/07/27 11:42:13;;;;;;;2.1;1.7;;;;;;;20.07;52.66309;934.7512;;;;
2023/07/27 11:44:38;;;;;;;3.8;2;;;;;;;19.96;53.38574;934.7141;;;;
2023/07/27 11:47:08;;;;;;;2.1;1.6;;;;;;;20.3;54.59473;934.6403;;;;
2023/07/27 11:49:33;;;;;;;2.7;1.9;;;;;;;20.31;53.11328;934.7159;;;;
2023/07/27 11:52:00;;;;;;;2.8;1.8;;;;;;;20.45;54.71777;934.6384;;;;
2023/07/27 11:54:25;;;;;;;1.9;1.7;;;;;;;20.49;53.2627;934.6671;;;;
2023/07/27 11:56:50;;;;;;;2.2;1.6;;;;;;;20.21;52.50586;934.686;;;;
2023/07/27 11:59:15;;;;;;;2;1.6;;;;;;;19.99;52.96875;934.7019;;;;
2023/07/27 12:01:42;;;;;;;3;2.1;;;;;;;20.06;53.24609;934.6586;;;;
2023/07/27 12:04:10;;;;;;;3.1;2;;;;;;;20.09;53.63379;934.6199;;;;
2023/07/27 12:06:35;;;;;;;2.9;1.8;;;;;;;20.27;55.94531;934.6511;;;;
2023/07/27 12:09:06;;;;;;;2.7;1.9;;;;;;;20.36;57.16016;934.61;;;;
2023/07/27 12:11:30;;;;;;;2.9;2;;;;;;;20.35;54.55469;934.6192;;;;
2023/07/27 12:13:56;;;;;;;2.9;2;;;;;;;20.44;52.60254;934.6661;;;;
2023/07/27 12:16:22;;;;;;;2.7;1.9;;;;;;;20.47;54.05371;934.5691;;;;
2023/07/27 12:18:47;;;;;;;2.5;2;;;;;;;20.45;54.06445;934.5314;;;;
2023/07/27 12:21:14;;;;;;;3.5;2;;;;;;;20.48;54.44141;934.5524;;;;
2023/07/27 12:23:39;;;;;;;3.5;2.1;;;;;;;20.27;55.60547;934.5664;;;;
2023/07/27 12:26:09;;;;;;;2.8;2.1;;;;;;;20.27;56.42285;934.5646;;;;
2023/07/27 12:28:32;;;;;;;4.1;2.2;;;;;;;20.05;57.23535;934.5541;;;;
2023/07/27 12:30:59;;;;;;;3.6;2.1;;;;;;;20.05;57.3877;934.6041;;;;
2023/07/27 12:33:26;;;;;;;3.5;2.1;;;;;;;20.18;57.31055;934.5861;;;;
2023/07/27 12:35:53;;;;;;;2.6;2.3;;;;;;;20.21;56.80176;934.5527;;;;
2023/07/27 12:38:17;;;;;;;2.6;1.9;;;;;;;20.19;57.24219;934.6089;;;;
2023/07/27 12:40:43;;;;;;;3.8;2.2;;;;;;;20.33;58.13672;934.5536;;;;
2023/07/27 12:43:08;;;;;;;2.5;2;;;;;;;20.41;56.09082;934.6409;;;;
2023/07/27 12:45:39;;;;;;;3.1;2.1;;;;;;;20.47;55.77051;934.658;;;;
2023/07/27 12:48:07;;;;;;;2.4;2;;;;;;;20.33;54.49414;934.6473;;;;
2023/07/27 12:50:32;;;;;;;2.1;1.8;;;;;;;20.18;54.67285;934.6735;;;;
2023/07/27 12:52:57;;;;;;;3.7;2.1;;;;;;;20.26;53.97168;934.6588;;;;
2023/07/27 12:55:23;;;;;;;2.9;1.9;;;;;;;20.43;53.0918;934.6576;;;;
2023/07/27 12:57:48;;;;;;;2.7;2;;;;;;;20.6;53.56836;934.6897;;;;
2023/07/27 13:00:16;;;;;;;3.6;1.9;;;;;;;20.72;56.71484;934.5985;;;;
2023/07/27 13:02:39;;;;;;;2.7;1.9;;;;;;;20.78;55.14355;934.6216;;;;
2023/07/27 13:05:12;;;;;;;3.8;2.2;;;;;;;20.71;55.74316;934.5825;;;;
2023/07/27 13:07:32;;;;;;;2.6;1.8;;;;;;;20.58;54.61621;934.6097;;;;
2023/07/27 13:10:00;;;;;;;2.4;1.9;;;;;;;20.4;54.88672;934.5569;;;;
2023/07/27 13:12:25;;;;;;;1.9;1.7;;;;;;;20.2;54.39551;934.6538;;;;
2023/07/27 13:14:51;;;;;;;3.1;1.9;;;;;;;20.07;54.57617;934.5687;;;;
2023/07/27 13:17:16;;;;;;;2.8;2.1;;;;;;;20.14;55.41406;934.5664;;;;
2023/07/27 13:19:44;;;;;;;3.4;2.1;;;;;;;20.42;59.61816;934.5672;;;;
2023/07/27 13:22:09;;;;;;;3.1;2.1;;;;;;;20.7;57.63379;934.5516;;;;
2023/07/27 13:24:35;;;;;;;4.2;2.2;;;;;;;20.79;56.67676;934.5296;;;;
2023/07/27 13:27:00;;;;;;;3.2;2;;;;;;;20.88;55.77539;934.5058;;;;
2023/07/27 13:29:30;;;;;;;2.7;2.2;;;;;;;20.48;55.32813;934.5355;;;;
2023/07/27 13:31:51;;;;;;;2.6;2;;;;;;;20.31;55.64648;934.4847;;;;
2023/07/27 13:34:18;;;;;;;2.9;1.9;;;;;;;20.43;54.77344;934.5412;;;;
2023/07/27 13:36:49;;;;;;;2.1;1.8;;;;;;;20.37;55.50195;934.55;;;;
2023/07/27 13:39:15;;;;;;;2.5;2;;;;;;;20.33;57.25977;934.5764;;;;
2023/07/27 13:41:40;;;;;;;2.4;2.1;;;;;;;20.4;57.51367;934.5603;;;;
2023/07/27 13:44:07;;;;;;;2.6;2.2;;;;;;;20.16;57.33105;934.5916;;;;
2023/07/27 13:46:33;;;;;;;5.1;2.9;;;;;;;20.03;57.44336;934.5836;;;;
2023/07/27 13:48:58;;;;;;;4.1;3;;;;;;;20.03;55.58789;934.4705;;;;
2023/07/27 13:51:23;;;;;;;3.3;2.7;;;;;;;20.18;56.50586;934.4524;;;;
2023/07/27 13:53:50;;;;;;;3.7;2.8;;;;;;;20.29;55.71289;934.4088;;;;
2023/07/27 13:56:15;;;;;;;3.9;2.2;;;;;;;20.25;53.99219;934.3647;;;;
2023/07/27 13:58:40;;;;;;;2.6;2.1;;;;;;;20.26;54.74121;934.3856;;;;
2023/07/27 14:01:05;;;;;;;2.1;1.9;;;;;;;20.52;55.41602;934.3876;;;;
2023/07/27 14:03:33;;;;;;;3.2;2;;;;;;;20.19;54.42871;934.4014;;;;
2023/07/27 14:05:58;;;;;;;2.6;2.1;;;;;;;20.26;55.65234;934.3677;;;;
2023/07/27 14:08:25;;;;;;;2.7;2.1;;;;;;;20.41;57.55078;934.2219;;;;
2023/07/27 14:10:50;;;;;;;2.5;2.1;;;;;;;20.45;57.01855;934.2792;;;;
2023/07/27 14:13:16;;;;;;;3.1;2.1;;;;;;;20.73;56.91309;934.3289;;;;
2023/07/27 14:15:41;;;;;;;3.3;2.1;;;;;;;20.27;55.54785;934.3125;;;;
2023/07/27 14:18:06;;;;;;;2.4;1.7;;;;;;;20.25;56.6543;934.2587;;;;
2023/07/27 14:20:32;;;;;;;2.8;2.1;;;;;;;20.18;57.73047;934.2383;;;;
2023/07/27 14:22:58;;;;;;;2.9;2.3;;;;;;;20.18;58.02344;934.1969;;;;
2023/07/27 14:25:23;;;;;;;3;2.1;;;;;;;20.31;59.02051;934.2123;;;;
2023/07/27 14:27:50;;;;;;;4;2.2;;;;;;;20.05;58.40234;934.1829;;;;
2023/07/27 14:30:18;;;;;;;4.2;1.9;;;;;;;19.99;56.51563;934.1232;;;;
2023/07/27 14:32:43;;;;;;;2.5;2;;;;;;;19.88;56.78223;934.202;;;;
2023/07/27 14:35:13;;;;;;;3.4;2;;;;;;;19.89;57.61133;934.1273;;;;
2023/07/27 14:37:41;;;;;;;2.7;2;;;;;;;19.97;57.17871;934.1821;;;;
2023/07/27 14:40:07;;;;;;;2.4;1.8;;;;;;;20.17;57.66992;934.3148;;;;
2023/07/27 14:42:38;;;;;;;3;2.1;;;;;;;20;57.88184;934.3427;;;;
2023/07/27 14:45:13;;;;;;;2.6;1.8;;;;;;;20.06;57.59863;934.3248;;;;
2023/07/27 14:47:42;;;;;;;2.5;1.9;;;;;;;20.14;58.15723;934.1895;;;;
2023/07/27 14:50:07;;;;;;;2.8;1.9;;;;;;;19.89;58.69629;934.2017;;;;
2023/07/27 14:52:32;;;;;;;2.8;1.9;;;;;;;20.12;58.43555;934.1925;;;;
2023/07/27 14:55:00;;;;;;;3;1.9;;;;;;;20.38;59.06543;934.0787;;;;
2023/07/27 14:57:25;;;;;;;2.5;2.1;;;;;;;20.39;58.7168;933.9797;;;;
2023/07/27 14:59:50;;;;;;;2.6;1.9;;;;;;;20.7;57.79785;933.8347;;;;
2023/07/27 15:02:15;;;;;;;1.9;1.7;;;;;;;21.13;58.16992;933.827;;;;
2023/07/27 15:04:43;;;;;;;4;2.3;;;;;;;21.43;57.04004;933.8293;;;;
2023/07/27 15:07:08;;;;;;;2.5;2;;;;;;;21.73;56.27051;933.7106;;;;
2023/07/27 15:09:33;;;;;;;3.9;2.1;;;;;;;21.78;56.16016;933.7343;;;;
2023/07/27 15:11:58;;;;;;;3.3;2.1;;;;;;;21.77;54.29492;933.721;;;;
2023/07/27 15:14:23;;;;;;;3;2.1;;;;;;;22.09;55.3418;933.7007;;;;
2023/07/27 15:16:51;;;;;;;2.6;1.9;;;;;;;21.81;50.38672;933.6191;;;;
2023/07/27 15:19:16;;;;;;;2.4;2;;;;;;;21.94;53.16895;933.5067;;;;
2023/07/27 15:21:41;;;;;;;2.6;2;;;;;;;22.07;54.10938;933.463;;;;
2023/07/27 15:24:06;;;;;;;2.7;2.1;;;;;;;21.98;55.55078;933.5003;;;;
2023/07/27 15:26:31;;;;;;;3.4;2.2;;;;;;;21.77;53.19336;933.443;;;;
2023/07/27 15:28:56;;;;;;;2.8;1.9;;;;;;;21.77;53.28711;933.4172;;;;
2023/07/27 15:31:21;;;;;;;2.3;1.8;;;;;;;21.7;50.9834;933.4387;;;;
2023/07/27 15:33:47;;;;;;;2.3;1.9;;;;;;;21.81;51.45313;933.4534;;;;
2023/07/27 15:36:14;;;;;;;3.3;2.1;;;;;;;21.86;50.58105;933.4112;;;;
2023/07/27 15:38:39;;;;;;;5.8;4.5;;;;;;;22.03;50.55273;933.3826;;;;
2023/07/27 15:41:07;;;;;;;3;2.6;;;;;;;22.17;51.85938;933.3678;;;;
2023/07/27 15:43:32;;;;;;;2.3;2.1;;;;;;;22.23;52.46289;933.2301;;;;
2023/07/27 15:45:59;;;;;;;4.7;1.9;;;;;;;22.39;49.83203;933.2473;;;;
2023/07/27 15:48:24;;;;;;;2.6;1.9;;;;;;;22.36;48.53711;933.192;;;;
2023/07/27 15:50:51;;;;;;;2.8;1.9;;;;;;;22.1;48.22852;933.2305;;;;
2023/07/27 15:53:16;;;;;;;2.4;2.1;;;;;;;22.25;49.64063;933.2104;;;;
2023/07/27 15:55:45;;;;;;;2.5;2;;;;;;;22.32;49.27344;933.1823;;;;
2023/07/27 15:58:14;;;;;;;2.3;1.9;;;;;;;22.42;49.70508;933.1415;;;;
2023/07/27 16:00:39;;;;;;;3.8;2.1;;;;;;;22.33;49.51953;933.1006;;;;
2023/07/27 16:03:11;;;;;;;4;2.5;;;;;;;22.4;48.62402;933.0887;;;;
2023/07/27 16:05:34;;;;;;;4.1;2;;;;;;;22.43;50.82129;933.1113;;;;
2023/07/27 16:08:01;;;;;;;2.2;2;;;;;;;22.27;50.59082;933.089;;;;
2023/07/27 16:10:25;;;;;;;3.3;2.1;;;;;;;22.34;50.81055;933.081;;;;
2023/07/27 16:12:52;;;;;;;3.8;2.5;;;;;;;22.34;51.38574;933.0793;;;;
2023/07/27 16:15:18;;;;;;;10.3;5.2;;;;;;;22.24;50.95215;933.044;;;;
2023/07/27 16:18:13;;;;;;;4.3;3;;;;;;;22.21;52.09766;933.1064;;;;
2023/07/27 16:20:39;;;;;;;2.2;2;;;;;;;21.99;52.13086;933.0708;;;;
2023/07/27 16:23:03;;;;;;;3.4;2;;;;;;;21.99;52.62305;933.0815;;;;
2023/07/27 16:25:28;;;;;;;3.7;2.7;;;;;;;22.05;56.11133;933.0428;;;;
2023/07/27 16:27:54;;;;;;;2.3;2;;;;;;;22;54.32227;932.9684;;;;
2023/07/27 16:30:19;;;;;;;2.9;1.9;;;;;;;22.1;55.36719;932.9889;;;;
2023/07/27 16:32:44;;;;;;;2.3;1.8;;;;;;;21.98;55.3877;932.9578;;;;
2023/07/27 16:35:09;;;;;;;3.3;2.1;;;;;;;21.67;55.50098;932.8604;;;;
2023/07/27 16:37:37;;;;;;;2.1;1.9;;;;;;;21.35;55.0752;932.8925;;;;
2023/07/27 16:40:02;;;;;;;4.5;1.9;;;;;;;21.3;56.07422;932.7781;;;;
2023/07/27 16:42:30;;;;;;;1.7;1.6;;;;;;;21.14;56.5;932.8484;;;;
2023/07/27 16:44:55;;;;;;;2.2;1.9;;;;;;;21.06;57.63477;932.8406;;;;
2023/07/27 16:48:26;;;;;;;2.1;1.7;;;;;;;20.82;59.77832;932.9002;;;;
2023/07/27 16:50:54;;;;;;;3.2;1.9;;;;;;;20.95;61.30469;932.8533;;;;
2023/07/27 16:53:19;;;;;;;2.2;1.8;;;;;;;20.99;61.2041;932.8672;;;;
2023/07/27 16:55:49;;;;;;;2.4;2;;;;;;;21.03;61.67676;932.861;;;;
2023/07/27 16:58:12;;;;;;;3.1;2.1;;;;;;;20.99;62.33887;932.8889;;;;
2023/07/27 17:00:38;;;;;;;2.8;2;;;;;;;20.69;62.72949;932.9375;;;;
2023/07/27 17:03:03;;;;;;;2.2;1.6;;;;;;;20.62;63.54883;932.9473;;;;
2023/07/27 17:05:29;;;;;;;3.9;2;;;;;;;20.64;62.81543;932.9565;;;;
2023/07/27 17:07:55;;;;;;;5.1;2.1;;;;;;;20.57;63.3418;932.9078;;;;
2023/07/27 17:10:20;;;;;;;4.5;3.3;;;;;;;20.64;63.58789;932.8997;;;;
2023/07/27 17:12:46;;;;;;;3.9;2.6;;;;;;;20.68;63.80176;932.9147;;;;